Stuart, FL

1:16 AM EDT on August 26, 2016 (GMT -0400)
Witham | | Change Station

Elev 20 ft 27.18 °N, 80.22 °W | Updated 41 minutes ago

Scattered Clouds
Scattered Clouds
84 °F
Feels Like 96 °F
N
8
Wind Variable Wind from NE

Today
High -- | Low -- °F
--% Chance of Precip.
Yesterday
High -- | Low -- °F
Precip. -- in
Pressure 29.98 in
Visibility -9999.0 miles
Clouds Scattered Clouds 1900 ft
Scattered Clouds 7500 ft
Scattered Clouds 8500 ft
Heat Index 96 °F
Dew Point 79 °F
Humidity 84%
Rainfall 0.00 in
Snow Depth Not available.
6:57 AM 7:47 PM
Last Quarter, 38% visible
METAR KSUA 260435Z AUTO 05007KT SCT019 SCT075 SCT085 29/26 A2998 RMK AO2 LTG DSNT S PWINO
Pressure 29.98 in
Visibility -9999.0 miles
Clouds Scattered Clouds 1900 ft
Scattered Clouds 7500 ft
Scattered Clouds 8500 ft
Heat Index 96 °F
Dew Point 79 °F
Humidity 84%
Rainfall 0.00 in
Snow Depth Not available.
6:57 AM 7:47 PM
Last Quarter, 38% visible
METAR KSUA 260435Z AUTO 05007KT SCT019 SCT075 SCT085 29/26 A2998 RMK AO2 LTG DSNT S PWINO
A tropical disturbance pushing toward the Bahamas, is expected to develop into a tropical depression or storm, and will likely target Florida and the Gulf Coast this weekend into next week.

Right now, the disturbance remains a broad area of low pressure pushing through the Dominican Republic and Haiti, headed toward the southeast Bahamas. Rainfall totals over 3 inches (with locally higher amounts) are expected in HispaƱiola, particularly over elevated terrain.

10-Day Weather Forecast

Almanac

Astronomy

Aug. 26, 2016 Rise Set
Actual Time
Civil Twilight
Nautical Twilight
Astronomical Twilight
Moon
Length of Visible Light
Length of Day
Tomorrow will be .
, % of the Moon is Illuminated

Today's Extremes

State Highs State Lows

Community

WunderPhotos

Upload Photos

1,935,057 photos uploaded!

WunderBlog® & News

Nearby

Air Quality

  Air Quality AQ Index Pollutant
Not available.

Snow Depth

Station Depth Elevation

Earthquake Activity

City Distance Mag. Time & Date
Minimum magnitude displayed is 2.5.

Coastal Water Temperatures

Place Temperature

Stations

Nearby Weather Stations

Station Location Temp. Windchill Dew Point Humidity Wind Precip. Elev Updated Type
                   

Watches & Warnings

There are currently no watches in effect.